createdAt,value
2019-01-05T00:06:23.840Z,101610.25
2019-01-05T00:09:09.739Z,101612.88
2019-01-05T00:14:29.466Z,101614.65
2019-01-05T00:17:15.784Z,101608.16
2019-01-05T00:23:02.607Z,101601.80
2019-01-05T00:25:48.515Z,101589.36
2019-01-05T00:31:12.103Z,101586.57
2019-01-05T00:34:19.799Z,101593.09
2019-01-05T00:42:57.047Z,101567.88
2019-01-05T00:45:42.976Z,101576.90
2019-01-05T00:51:06.653Z,101573.05
2019-01-05T00:53:52.548Z,101566.16
2019-01-05T00:56:38.486Z,101564.77
2019-01-05T00:59:24.383Z,101559.88
2019-01-05T01:07:21.944Z,101548.99
2019-01-05T01:10:07.892Z,101565.47
2019-01-05T01:12:53.788Z,101532.94
2019-01-05T01:15:34.835Z,101538.25
2019-01-05T01:21:08.181Z,101523.69
2019-01-05T01:23:54.082Z,101533.20
2019-01-05T01:26:40.004Z,101538.42
2019-01-05T01:29:25.905Z,101536.66
2019-01-05T01:32:11.851Z,101518.13
2019-01-05T01:34:57.734Z,101516.92
2019-01-05T01:38:23.404Z,101512.83
2019-01-05T01:41:09.283Z,101507.77
2019-01-05T01:43:55.224Z,101493.52
2019-01-05T01:49:28.589Z,101492.22
2019-01-05T01:52:14.471Z,101475.02
2019-01-05T01:55:00.405Z,101480.82
2019-01-05T02:00:41.604Z,101492.14
2019-01-05T02:09:18.767Z,101471.00
2019-01-05T02:24:33.773Z,101476.41
2019-01-05T02:34:01.214Z,101465.64
2019-01-05T02:43:10.707Z,101439.94
2019-01-05T02:46:18.415Z,101424.61
2019-01-05T02:49:44.584Z,101431.75
2019-01-05T03:05:13.165Z,101380.14
2019-01-05T03:11:39.351Z,101374.04
2019-01-05T03:15:05.040Z,101371.72
2019-01-05T03:18:12.718Z,101352.86
2019-01-05T03:21:38.340Z,101348.55
2019-01-05T03:25:04.022Z,101341.42
2019-01-05T03:28:29.674Z,101352.16
2019-01-05T03:31:55.361Z,101350.05
2019-01-05T03:35:21.042Z,101328.08
2019-01-05T03:38:01.646Z,101330.31
2019-01-05T03:41:27.346Z,101325.41
2019-01-05T03:44:52.982Z,101321.54
2019-01-05T03:51:39.251Z,101313.77
2019-01-05T03:55:04.889Z,101311.57
2019-01-05T03:58:30.596Z,101312.22
2019-01-05T04:01:56.269Z,101310.78
2019-01-05T04:05:21.908Z,101307.03
2019-01-05T04:08:47.526Z,101299.93
2019-01-05T04:12:13.170Z,101302.94
2019-01-05T04:15:38.818Z,101300.55
2019-01-05T04:22:05.316Z,101309.34
2019-01-05T04:25:30.998Z,101301.19
2019-01-05T04:28:56.636Z,101318.08
2019-01-05T04:32:04.320Z,101322.82
2019-01-05T04:44:44.940Z,101297.23
2019-01-05T04:54:11.616Z,101301.41
2019-01-05T05:03:38.129Z,101295.39
2019-01-05T05:07:03.769Z,101282.91
2019-01-05T05:16:43.705Z,101277.06
2019-01-05T05:19:51.386Z,101286.06
2019-01-05T05:23:17.015Z,101277.99
2019-01-05T05:26:24.731Z,101283.48
2019-01-05T05:29:32.407Z,101276.51
2019-01-05T05:32:58.022Z,101274.52
2019-01-05T05:36:23.665Z,101271.05
2019-01-05T05:39:49.258Z,101281.23
2019-01-05T05:46:35.350Z,101272.81
2019-01-05T05:49:43.094Z,101272.16
2019-01-05T05:53:08.689Z,101260.31
2019-01-05T05:56:34.497Z,101269.68
2019-01-05T06:03:01.136Z,101269.88
2019-01-05T06:15:10.809Z,101298.22
2019-01-05T06:21:36.845Z,101294.91
2019-01-05T06:28:02.992Z,101299.12
2019-01-05T06:31:10.691Z,101299.52
2019-01-05T06:34:36.327Z,101306.05
2019-01-05T06:38:01.965Z,101302.92
2019-01-05T06:41:27.620Z,101298.80
2019-01-05T06:44:35.311Z,101313.41
2019-01-05T06:57:03.140Z,101318.80
2019-01-05T07:00:10.835Z,101335.23
2019-01-05T07:12:58.832Z,101340.52
2019-01-05T07:16:24.436Z,101344.22
2019-01-05T07:19:50.086Z,101358.65
2019-01-05T07:26:16.202Z,101367.25
2019-01-05T07:29:41.838Z,101356.92
2019-01-05T07:33:07.524Z,101367.61
2019-01-05T07:36:33.215Z,101373.14
2019-01-05T07:43:19.133Z,101380.45
2019-01-05T07:46:44.821Z,101379.95
2019-01-05T07:50:10.471Z,101368.58
2019-01-05T07:56:48.311Z,101386.02
2019-01-05T07:59:55.996Z,101382.63
2019-01-05T08:03:21.674Z,101379.79
2019-01-05T08:06:29.405Z,101381.08
2019-01-05T08:09:55.051Z,101385.28
2019-01-05T08:13:20.655Z,101388.49
2019-01-05T08:20:02.840Z,101382.45
2019-01-05T08:23:28.502Z,101394.54
2019-01-05T08:26:54.107Z,101389.05
2019-01-05T08:30:19.782Z,101394.01
2019-01-05T08:33:45.434Z,101405.73
2019-01-05T08:36:53.168Z,101403.22
2019-01-05T08:40:00.848Z,101404.53
2019-01-05T08:43:08.496Z,101411.88
2019-01-05T08:46:16.178Z,101413.98
2019-01-05T08:49:23.870Z,101418.11
2019-01-05T08:58:50.623Z,101425.58
2019-01-05T09:01:58.318Z,101430.11
2019-01-05T09:05:23.957Z,101428.41
2019-01-05T09:11:52.021Z,101435.06
2019-01-05T09:18:31.323Z,101440.95
2019-01-05T09:21:57.005Z,101445.86
2019-01-05T09:31:06.231Z,101447.58
2019-01-05T09:37:32.635Z,101449.95
2019-01-05T09:56:41.092Z,101460.20
2019-01-05T10:03:07.446Z,101456.84
2019-01-05T10:06:15.162Z,101468.61
2019-01-05T10:12:54.647Z,101463.31
2019-01-05T10:16:20.332Z,101458.50
2019-01-05T10:22:46.757Z,101468.96
2019-01-05T10:32:13.065Z,101477.27
2019-01-05T10:35:38.711Z,101474.88
2019-01-05T10:38:46.359Z,101478.80
2019-01-05T10:41:54.041Z,101469.22
2019-01-05T10:51:16.433Z,101469.48
2019-01-05T10:54:24.119Z,101467.84
2019-01-05T11:00:50.286Z,101471.15
2019-01-05T11:03:57.978Z,101475.56
2019-01-05T11:07:23.578Z,101466.10
2019-01-05T11:10:49.250Z,101470.41
2019-01-05T11:20:27.300Z,101459.28
2019-01-05T11:23:52.901Z,101462.53
2019-01-05T11:27:00.586Z,101466.34
2019-01-05T11:30:26.187Z,101461.91
2019-01-05T11:33:33.884Z,101455.59
2019-01-05T11:40:13.416Z,101451.63
2019-01-05T11:43:39.111Z,101453.18
2019-01-05T11:49:47.840Z,101460.05
2019-01-05T11:53:13.537Z,101469.22
2019-01-05T11:56:21.242Z,101464.98
2019-01-05T11:59:46.916Z,101467.77
2019-01-05T12:03:12.569Z,101471.95
2019-01-05T12:09:38.715Z,101473.02
2019-01-05T12:12:46.395Z,101470.55
2019-01-05T12:21:55.591Z,101465.48
2019-01-05T12:25:21.237Z,101466.17
2019-01-05T12:28:46.848Z,101463.75
2019-01-05T12:31:54.575Z,101466.45
2019-01-05T12:35:21.285Z,101459.36
2019-01-05T12:38:47.114Z,101454.81
2019-01-05T12:45:13.871Z,101447.52
2019-01-05T12:48:21.575Z,101435.23
2019-01-05T12:54:47.778Z,101442.32
2019-01-05T12:57:55.464Z,101431.61
2019-01-05T13:10:36.279Z,101451.59
2019-01-05T13:13:43.975Z,101450.81
2019-01-05T13:17:09.575Z,101448.20
2019-01-05T13:20:17.271Z,101455.88
2019-01-05T13:23:42.933Z,101460.30
2019-01-05T13:29:51.095Z,101462.14
2019-01-05T13:45:16.407Z,101482.99
2019-01-05T13:48:42.095Z,101488.52
2019-01-05T13:52:07.758Z,101485.92
2019-01-05T13:58:07.519Z,101490.27
2019-01-05T14:00:53.411Z,101495.20
2019-01-05T14:06:17.066Z,101500.59
2019-01-05T14:09:03.009Z,101504.16
2019-01-05T14:11:57.702Z,101505.47
2019-01-05T14:14:43.593Z,101503.63
2019-01-05T14:20:11.834Z,101509.42
2019-01-05T14:22:55.239Z,101504.41
2019-01-05T14:25:41.179Z,101505.25
2019-01-05T14:28:27.100Z,101512.60
2019-01-05T14:31:13.022Z,101510.81
2019-01-05T14:33:58.953Z,101516.88
2019-01-05T14:36:44.887Z,101519.28
2019-01-05T14:39:30.820Z,101523.22
2019-01-05T14:42:16.732Z,101532.83
2019-01-05T14:45:02.650Z,101539.86
2019-01-05T14:50:35.988Z,101548.55
2019-01-05T14:53:21.915Z,101544.34
2019-01-05T14:58:45.426Z,101557.47
2019-01-05T15:04:09.234Z,101563.28
2019-01-05T15:06:55.177Z,101563.72
2019-01-05T15:09:41.068Z,101558.51
2019-01-05T15:12:26.995Z,101554.77
2019-01-05T15:15:12.925Z,101553.82
2019-01-05T15:17:58.857Z,101556.53
2019-01-05T15:21:04.593Z,101563.62
2019-01-05T15:23:50.509Z,101564.03
2019-01-05T15:26:36.417Z,101558.30
2019-01-05T15:29:22.365Z,101561.73
2019-01-05T15:34:42.250Z,101568.28
2019-01-05T15:37:28.169Z,101576.41
2019-01-05T15:40:14.078Z,101577.85
2019-01-05T15:45:33.526Z,101575.11
2019-01-05T15:48:19.438Z,101576.25
2019-01-05T15:51:05.376Z,101577.81
2019-01-05T15:59:16.532Z,101593.47
2019-01-05T16:04:35.923Z,101601.35
2019-01-05T16:07:21.867Z,101605.87
2019-01-05T16:10:07.938Z,101609.33
2019-01-05T16:12:53.894Z,101610.13
2019-01-05T16:15:39.808Z,101612.63
2019-01-05T16:18:25.716Z,101614.93
2019-01-05T16:21:11.662Z,101617.62
2019-01-05T16:23:57.597Z,101623.66
2019-01-05T16:29:17.089Z,101627.52
2019-01-05T16:34:50.451Z,101611.66
2019-01-05T16:37:36.369Z,101618.64
2019-01-05T16:43:22.738Z,101612.66
2019-01-05T16:46:08.629Z,101609.36
2019-01-05T16:48:54.779Z,101603.88
2019-01-05T16:51:40.695Z,101602.53
2019-01-05T16:54:26.609Z,101609.70
2019-01-05T16:57:12.487Z,101619.80
2019-01-05T16:59:58.445Z,101623.73
2019-01-05T17:02:44.348Z,101629.66
2019-01-05T17:05:30.285Z,101628.36
2019-01-05T17:08:16.193Z,101629.38
2019-01-05T17:18:47.253Z,101639.61
2019-01-05T17:21:33.148Z,101647.63
2019-01-05T17:24:19.116Z,101647.33
2019-01-05T17:27:04.954Z,101648.35
2019-01-05T17:29:50.886Z,101643.97
2019-01-05T17:32:36.792Z,101644.64
2019-01-05T17:35:22.834Z,101645.83
2019-01-05T17:38:08.737Z,101648.33
2019-01-05T17:40:54.696Z,101647.03
2019-01-05T17:43:40.573Z,101645.73
2019-01-05T17:46:26.506Z,101646.13
2019-01-05T17:49:12.431Z,101650.56
2019-01-05T17:51:58.358Z,101647.88
2019-01-05T17:54:44.232Z,101654.20
2019-01-05T17:57:30.168Z,101662.98
2019-01-05T18:00:16.226Z,101661.16
2019-01-05T18:05:49.643Z,101671.78
2019-01-05T18:08:35.562Z,101679.23
2019-01-05T18:11:21.486Z,101673.87
2019-01-05T18:16:54.821Z,101682.96
2019-01-05T18:19:40.733Z,101677.44
2019-01-05T18:22:26.748Z,101675.51
2019-01-05T18:25:12.694Z,101684.98
2019-01-05T18:27:58.608Z,101691.13
2019-01-05T18:30:44.485Z,101687.31
2019-01-05T18:33:30.409Z,101690.41
2019-01-05T18:36:16.501Z,101692.05
2019-01-05T18:41:40.158Z,101694.69
2019-01-05T18:47:13.517Z,101696.30
2019-01-05T18:52:46.877Z,101699.52
2019-01-05T18:55:32.818Z,101698.14
2019-01-05T18:58:18.713Z,101697.20
2019-01-05T19:03:43.761Z,101697.22
2019-01-05T19:06:29.732Z,101703.19
2019-01-05T19:09:15.694Z,101703.38
2019-01-05T19:12:08.594Z,101701.31
2019-01-05T19:14:49.504Z,101702.95
2019-01-05T19:17:35.500Z,101702.73
2019-01-05T19:20:21.577Z,101698.73
2019-01-05T19:23:07.650Z,101704.45
2019-01-05T19:25:53.570Z,101694.37
2019-01-05T19:28:39.511Z,101696.61
2019-01-05T19:31:32.892Z,101697.23
2019-01-05T19:34:20.232Z,101694.87
2019-01-05T19:39:40.621Z,101687.53
2019-01-05T19:42:26.577Z,101688.90
2019-01-05T19:50:37.657Z,101695.68
2019-01-05T19:56:17.401Z,101708.28
2019-01-05T19:59:23.168Z,101710.89
2019-01-05T20:02:09.189Z,101709.00
2019-01-05T20:07:28.909Z,101706.46
2019-01-05T20:10:36.882Z,101700.95
2019-01-05T20:13:22.895Z,101710.91
2019-01-05T20:16:08.859Z,101715.55
2019-01-05T20:18:54.743Z,101713.28
2019-01-05T20:21:55.478Z,101719.81
2019-01-05T20:29:51.062Z,101708.58
2019-01-05T20:35:10.830Z,101722.64
2019-01-05T20:37:57.629Z,101717.27
2019-01-05T20:40:43.566Z,101723.38
2019-01-05T20:43:29.543Z,101736.06
2019-01-05T20:46:15.543Z,101733.22
2019-01-05T20:49:10.665Z,101726.17
2019-01-05T20:51:56.510Z,101721.70
2019-01-05T20:54:42.513Z,101729.86
2019-01-05T20:57:28.423Z,101727.89
2019-01-05T21:05:39.957Z,101728.87
2019-01-05T21:08:13.681Z,101729.38
2019-01-05T21:11:21.379Z,101727.09
2019-01-05T21:19:18.670Z,101728.50
2019-01-05T21:22:24.863Z,101738.95
2019-01-05T21:27:58.217Z,101742.48
2019-01-05T21:30:44.126Z,101738.90
2019-01-05T21:33:30.088Z,101732.48
2019-01-05T21:36:15.994Z,101732.42
2019-01-05T21:39:01.946Z,101735.85
2019-01-05T21:44:25.927Z,101738.55
2019-01-05T21:47:11.882Z,101743.73
2019-01-05T21:49:57.815Z,101738.47
2019-01-05T21:55:31.163Z,101751.08
2019-01-05T21:58:17.066Z,101752.00
2019-01-05T22:01:03.001Z,101761.08
2019-01-05T22:03:48.914Z,101761.11
2019-01-05T22:06:34.838Z,101762.80
2019-01-05T22:09:20.754Z,101760.27
2019-01-05T22:12:06.706Z,101761.07
2019-01-05T22:14:52.600Z,101760.78
2019-01-05T22:17:38.544Z,101763.07
2019-01-05T22:23:11.875Z,101767.25
2019-01-05T22:25:57.783Z,101768.14
2019-01-05T22:28:43.726Z,101771.56
2019-01-05T22:31:29.635Z,101772.11
2019-01-05T22:34:15.562Z,101779.55
2019-01-05T22:37:14.974Z,101775.95
2019-01-05T22:40:02.332Z,101778.23
2019-01-05T22:45:37.687Z,101771.70
2019-01-05T22:48:23.631Z,101773.34
2019-01-05T22:51:09.550Z,101770.30
2019-01-05T22:53:55.447Z,101765.61
2019-01-05T22:56:41.385Z,101773.15
2019-01-05T22:59:27.288Z,101770.86
2019-01-05T23:04:47.169Z,101775.61
2019-01-05T23:07:33.073Z,101780.95
2019-01-05T23:10:19.035Z,101777.73
2019-01-05T23:13:04.937Z,101787.03
2019-01-05T23:15:50.878Z,101782.33
2019-01-05T23:18:36.784Z,101787.65
2019-01-05T23:21:22.710Z,101785.87
2019-01-05T23:24:08.625Z,101794.48
2019-01-05T23:26:54.552Z,101790.20
2019-01-05T23:29:40.446Z,101784.55
2019-01-05T23:32:26.393Z,101787.53
2019-01-05T23:35:12.273Z,101786.02
2019-01-05T23:37:58.220Z,101790.97
2019-01-05T23:40:44.113Z,101789.16
2019-01-05T23:43:30.058Z,101788.75
2019-01-05T23:46:15.918Z,101792.44
2019-01-05T23:49:01.915Z,101799.73
2019-01-05T23:57:09.158Z,101793.30
2019-01-05T23:59:55.042Z,101781.94
